sensor_id;sensor_type;location;lat;lon;timestamp;pressure;altitude;pressure_sealevel;temperature;humidity
2673;BME280;1346;51.558;6.996;2022-10-16T00:01:27;100601.38;;;13.76;100.00
2673;BME280;1346;51.558;6.996;2022-10-16T00:03:56;100598.06;;;13.74;100.00
2673;BME280;1346;51.558;6.996;2022-10-16T00:06:23;100597.56;;;13.71;100.00
2673;BME280;1346;51.558;6.996;2022-10-16T00:08:52;100597.06;;;13.67;100.00
2673;BME280;1346;51.558;6.996;2022-10-16T00:11:21;100599.47;;;13.62;100.00
2673;BME280;1346;51.558;6.996;2022-10-16T00:13:51;100601.31;;;13.62;100.00
2673;BME280;1346;51.558;6.996;2022-10-16T00:16:19;100607.53;;;13.62;100.00
2673;BME280;1346;51.558;6.996;2022-10-16T00:18:46;100609.19;;;13.63;100.00
2673;BME280;1346;51.558;6.996;2022-10-16T00:21:16;100602.31;;;13.61;100.00
2673;BME280;1346;51.558;6.996;2022-10-16T00:23:43;100599.31;;;13.56;100.00
2673;BME280;1346;51.558;6.996;2022-10-16T00:26:17;100599.63;;;13.53;100.00
2673;BME280;1346;51.558;6.996;2022-10-16T00:28:46;100599.16;;;13.49;100.00
2673;BME280;1346;51.558;6.996;2022-10-16T00:31:14;100608.25;;;13.48;100.00
2673;BME280;1346;51.558;6.996;2022-10-16T00:33:41;100606.22;;;13.50;100.00
2673;BME280;1346;51.558;6.996;2022-10-16T00:36:12;100604.22;;;13.52;100.00
2673;BME280;1346;51.558;6.996;2022-10-16T00:38:39;100614.13;;;13.52;100.00
2673;BME280;1346;51.558;6.996;2022-10-16T00:41:07;100616.16;;;13.50;100.00
2673;BME280;1346;51.558;6.996;2022-10-16T00:43:42;100610.75;;;13.50;100.00
2673;BME280;1346;51.558;6.996;2022-10-16T00:46:15;100614.47;;;13.49;100.00
2673;BME280;1346;51.558;6.996;2022-10-16T00:48:49;100616.50;;;13.47;100.00
2673;BME280;1346;51.558;6.996;2022-10-16T00:51:21;100623.91;;;13.45;100.00
2673;BME280;1346;51.558;6.996;2022-10-16T00:53:50;100622.25;;;13.44;100.00
2673;BME280;1346;51.558;6.996;2022-10-16T00:56:17;100620.19;;;13.46;100.00
2673;BME280;1346;51.558;6.996;2022-10-16T00:58:46;100613.81;;;13.47;100.00
2673;BME280;1346;51.558;6.996;2022-10-16T01:01:13;100615.47;;;13.48;100.00
2673;BME280;1346;51.558;6.996;2022-10-16T01:03:40;100606.41;;;13.49;100.00
2673;BME280;1346;51.558;6.996;2022-10-16T01:06:21;100605.38;;;13.50;100.00
2673;BME280;1346;51.558;6.996;2022-10-16T01:08:59;100603.72;;;13.49;100.00
2673;BME280;1346;51.558;6.996;2022-10-16T01:11:35;100613.81;;;13.47;100.00
2673;BME280;1346;51.558;6.996;2022-10-16T01:14:19;100608.91;;;13.50;100.00
2673;BME280;1346;51.558;6.996;2022-10-16T01:16:53;100601.69;;;13.51;100.00
2673;BME280;1346;51.558;6.996;2022-10-16T01:19:36;100605.75;;;13.47;100.00
2673;BME280;1346;51.558;6.996;2022-10-16T01:22:08;100607.94;;;13.43;100.00
2673;BME280;1346;51.558;6.996;2022-10-16T01:24:39;100615.16;;;13.43;100.00
2673;BME280;1346;51.558;6.996;2022-10-16T01:27:13;100616.34;;;13.40;100.00
2673;BME280;1346;51.558;6.996;2022-10-16T01:29:50;100619.22;;;13.39;100.00
2673;BME280;1346;51.558;6.996;2022-10-16T01:32:30;100607.63;;;13.38;100.00
2673;BME280;1346;51.558;6.996;2022-10-16T01:35:02;100611.34;;;13.37;100.00
2673;BME280;1346;51.558;6.996;2022-10-16T01:37:36;100617.03;;;13.34;100.00
2673;BME280;1346;51.558;6.996;2022-10-16T01:40:09;100605.78;;;13.30;100.00
2673;BME280;1346;51.558;6.996;2022-10-16T01:42:41;100605.94;;;13.29;100.00
2673;BME280;1346;51.558;6.996;2022-10-16T01:45:11;100605.47;;;13.33;100.00
2673;BME280;1346;51.558;6.996;2022-10-16T01:47:39;100610.84;;;13.33;100.00
2673;BME280;1346;51.558;6.996;2022-10-16T01:50:08;100606.44;;;13.32;100.00
2673;BME280;1346;51.558;6.996;2022-10-16T01:52:40;100607.47;;;13.31;100.00
2673;BME280;1346;51.558;6.996;2022-10-16T01:55:10;100609.31;;;13.31;100.00
2673;BME280;1346;51.558;6.996;2022-10-16T01:57:43;100600.41;;;13.30;100.00
2673;BME280;1346;51.558;6.996;2022-10-16T02:00:14;100599.75;;;13.28;100.00
2673;BME280;1346;51.558;6.996;2022-10-16T02:02:47;100600.41;;;13.30;100.00
2673;BME280;1346;51.558;6.996;2022-10-16T02:05:21;100608.16;;;13.33;100.00
2673;BME280;1346;51.558;6.996;2022-10-16T02:07:50;100599.41;;;13.31;100.00
2673;BME280;1346;51.558;6.996;2022-10-16T02:10:17;100599.91;;;13.27;100.00
2673;BME280;1346;51.558;6.996;2022-10-16T02:12:50;100614.56;;;13.24;100.00
2673;BME280;1346;51.558;6.996;2022-10-16T02:15:20;100621.09;;;13.22;100.00
2673;BME280;1346;51.558;6.996;2022-10-16T02:17:47;100623.47;;;13.25;100.00
2673;BME280;1346;51.558;6.996;2022-10-16T02:20:14;100630.34;;;13.27;100.00
2673;BME280;1346;51.558;6.996;2022-10-16T02:22:44;100620.06;;;13.31;100.00
2673;BME280;1346;51.558;6.996;2022-10-16T02:25:17;100622.94;;;13.29;100.00
2673;BME280;1346;51.558;6.996;2022-10-16T02:27:53;100627.28;;;13.30;100.00
2673;BME280;1346;51.558;6.996;2022-10-16T02:30:27;100624.44;;;13.32;100.00
2673;BME280;1346;51.558;6.996;2022-10-16T02:32:57;100625.28;;;13.32;100.00
2673;BME280;1346;51.558;6.996;2022-10-16T02:35:25;100628.66;;;13.34;100.00
2673;BME280;1346;51.558;6.996;2022-10-16T02:37:54;100635.19;;;13.32;100.00
2673;BME280;1346;51.558;6.996;2022-10-16T02:40:22;100627.97;;;13.32;100.00
2673;BME280;1346;51.558;6.996;2022-10-16T02:42:53;100632.69;;;13.30;100.00
2673;BME280;1346;51.558;6.996;2022-10-16T02:45:20;100627.28;;;13.30;100.00
2673;BME280;1346;51.558;6.996;2022-10-16T02:47:48;100627.28;;;13.30;100.00
2673;BME280;1346;51.558;6.996;2022-10-16T02:50:16;100620.44;;;13.28;100.00
2673;BME280;1346;51.558;6.996;2022-10-16T02:52:43;100635.03;;;13.25;100.00
2673;BME280;1346;51.558;6.996;2022-10-16T02:55:10;100630.03;;;13.22;100.00
2673;BME280;1346;51.558;6.996;2022-10-16T02:57:37;100620.47;;;13.20;100.00
2673;BME280;1346;51.558;6.996;2022-10-16T03:00:09;100608.19;;;13.17;100.00
2673;BME280;1346;51.558;6.996;2022-10-16T03:02:38;100616.41;;;13.16;100.00
2673;BME280;1346;51.558;6.996;2022-10-16T03:05:06;100623.63;;;13.15;100.00
2673;BME280;1346;51.558;6.996;2022-10-16T03:07:33;100621.97;;;13.14;100.00
2673;BME280;1346;51.558;6.996;2022-10-16T03:10:00;100626.16;;;13.17;100.00
2673;BME280;1346;51.558;6.996;2022-10-16T03:12:28;100629.16;;;13.22;100.00
2673;BME280;1346;51.558;6.996;2022-10-16T03:14:55;100637.41;;;13.28;100.00
2673;BME280;1346;51.558;6.996;2022-10-16T03:17:24;100636.72;;;13.34;100.00
2673;BME280;1346;51.558;6.996;2022-10-16T03:19:51;100633.50;;;13.39;100.00
2673;BME280;1346;51.558;6.996;2022-10-16T03:22:18;100639.19;;;13.44;100.00
2673;BME280;1346;51.558;6.996;2022-10-16T03:24:45;100633.16;;;13.50;100.00
2673;BME280;1346;51.558;6.996;2022-10-16T03:27:12;100630.28;;;13.52;100.00
2673;BME280;1346;51.558;6.996;2022-10-16T03:29:39;100626.56;;;13.53;100.00
2673;BME280;1346;51.558;6.996;2022-10-16T03:32:06;100630.59;;;13.57;100.00
2673;BME280;1346;51.558;6.996;2022-10-16T03:34:34;100628.94;;;13.56;100.00
2673;BME280;1346;51.558;6.996;2022-10-16T03:37:01;100635.63;;;13.60;100.00
2673;BME280;1346;51.558;6.996;2022-10-16T03:39:28;100624.84;;;13.60;100.00
2673;BME280;1346;51.558;6.996;2022-10-16T03:41:55;100625.22;;;13.57;100.00
2673;BME280;1346;51.558;6.996;2022-10-16T03:44:21;100621.66;;;13.56;100.00
2673;BME280;1346;51.558;6.996;2022-10-16T03:46:48;100627.06;;;13.56;100.00
2673;BME280;1346;51.558;6.996;2022-10-16T03:49:15;100623.88;;;13.53;100.00
2673;BME280;1346;51.558;6.996;2022-10-16T03:51:43;100624.53;;;13.55;100.00
2673;BME280;1346;51.558;6.996;2022-10-16T03:54:11;100633.47;;;13.55;100.00
2673;BME280;1346;51.558;6.996;2022-10-16T03:56:38;100641.72;;;13.54;100.00
2673;BME280;1346;51.558;6.996;2022-10-16T03:59:05;100652.31;;;13.55;100.00
2673;BME280;1346;51.558;6.996;2022-10-16T04:01:32;100653.47;;;13.53;100.00
2673;BME280;1346;51.558;6.996;2022-10-16T04:03:59;100649.97;;;13.52;100.00
2673;BME280;1346;51.558;6.996;2022-10-16T04:06:25;100668.28;;;13.57;100.00
2673;BME280;1346;51.558;6.996;2022-10-16T04:08:54;100658.00;;;13.60;100.00
2673;BME280;1346;51.558;6.996;2022-10-16T04:11:21;100642.34;;;13.64;100.00
2673;BME280;1346;51.558;6.996;2022-10-16T04:13:48;100642.53;;;13.62;100.00
2673;BME280;1346;51.558;6.996;2022-10-16T04:16:15;100657.81;;;13.62;100.00
2673;BME280;1346;51.558;6.996;2022-10-16T04:18:41;100665.22;;;13.60;100.00
2673;BME280;1346;51.558;6.996;2022-10-16T04:21:08;100662.84;;;13.65;100.00
2673;BME280;1346;51.558;6.996;2022-10-16T04:23:35;100664.56;;;13.66;100.00
2673;BME280;1346;51.558;6.996;2022-10-16T04:26:04;100666.88;;;13.69;100.00
2673;BME280;1346;51.558;6.996;2022-10-16T04:28:31;100675.16;;;13.67;100.00
2673;BME280;1346;51.558;6.996;2022-10-16T04:30:57;100676.66;;;13.62;100.00
2673;BME280;1346;51.558;6.996;2022-10-16T04:33:24;100676.19;;;13.58;100.00
2673;BME280;1346;51.558;6.996;2022-10-16T04:35:56;100678.38;;;13.55;100.00
2673;BME280;1346;51.558;6.996;2022-10-16T04:38:23;100681.75;;;13.49;100.00
2673;BME280;1346;51.558;6.996;2022-10-16T04:40:51;100674.34;;;13.43;100.00
2673;BME280;1346;51.558;6.996;2022-10-16T04:43:19;100681.13;;;13.39;100.00
2673;BME280;1346;51.558;6.996;2022-10-16T04:45:46;100689.50;;;13.35;100.00
2673;BME280;1346;51.558;6.996;2022-10-16T04:48:13;100688.69;;;13.35;100.00
2673;BME280;1346;51.558;6.996;2022-10-16T04:50:41;100683.81;;;13.39;100.00
2673;BME280;1346;51.558;6.996;2022-10-16T04:53:08;100689.19;;;13.39;100.00
2673;BME280;1346;51.558;6.996;2022-10-16T04:55:35;100686.50;;;13.39;100.00
2673;BME280;1346;51.558;6.996;2022-10-16T04:58:03;100693.72;;;13.38;100.00
2673;BME280;1346;51.558;6.996;2022-10-16T05:00:31;100700.28;;;13.35;100.00
2673;BME280;1346;51.558;6.996;2022-10-16T05:02:58;100696.25;;;13.40;100.00
2673;BME280;1346;51.558;6.996;2022-10-16T05:05:26;100693.53;;;13.40;100.00
2673;BME280;1346;51.558;6.996;2022-10-16T05:07:53;100705.34;;;13.39;100.00
2673;BME280;1346;51.558;6.996;2022-10-16T05:10:20;100708.03;;;13.39;100.00
2673;BME280;1346;51.558;6.996;2022-10-16T05:12:47;100709.34;;;13.43;100.00
2673;BME280;1346;51.558;6.996;2022-10-16T05:15:14;100711.84;;;13.44;100.00
2673;BME280;1346;51.558;6.996;2022-10-16T05:17:42;100706.66;;;13.43;100.00
2673;BME280;1346;51.558;6.996;2022-10-16T05:20:09;100727.84;;;13.46;100.00
2673;BME280;1346;51.558;6.996;2022-10-16T05:22:36;100719.75;;;13.46;100.00
2673;BME280;1346;51.558;6.996;2022-10-16T05:25:04;100720.78;;;13.45;100.00
2673;BME280;1346;51.558;6.996;2022-10-16T05:27:31;100725.63;;;13.49;100.00
2673;BME280;1346;51.558;6.996;2022-10-16T05:29:58;100727.69;;;13.47;100.00
2673;BME280;1346;51.558;6.996;2022-10-16T05:32:25;100731.53;;;13.45;100.00
2673;BME280;1346;51.558;6.996;2022-10-16T05:34:53;100733.91;;;13.40;100.00
2673;BME280;1346;51.558;6.996;2022-10-16T05:37:20;100734.94;;;13.39;100.00
2673;BME280;1346;51.558;6.996;2022-10-16T05:39:47;100734.09;;;13.38;100.00
2673;BME280;1346;51.558;6.996;2022-10-16T05:42:14;100745.19;;;13.35;100.00
2673;BME280;1346;51.558;6.996;2022-10-16T05:44:41;100736.28;;;13.34;100.00
2673;BME280;1346;51.558;6.996;2022-10-16T05:47:08;100747.88;;;13.35;100.00
2673;BME280;1346;51.558;6.996;2022-10-16T05:49:36;100745.38;;;13.33;100.00
2673;BME280;1346;51.558;6.996;2022-10-16T05:52:04;100748.06;;;13.33;100.00
2673;BME280;1346;51.558;6.996;2022-10-16T05:54:31;100747.03;;;13.34;100.00
2673;BME280;1346;51.558;6.996;2022-10-16T05:56:58;100755.28;;;13.33;100.00
2673;BME280;1346;51.558;6.996;2022-10-16T05:59:25;100752.09;;;13.29;100.00
2673;BME280;1346;51.558;6.996;2022-10-16T06:01:52;100760.34;;;13.28;100.00
2673;BME280;1346;51.558;6.996;2022-10-16T06:04:19;100771.25;;;13.26;100.00
2673;BME280;1346;51.558;6.996;2022-10-16T06:06:46;100771.91;;;13.20;100.00
2673;BME280;1346;51.558;6.996;2022-10-16T06:09:14;100776.63;;;13.18;100.00
2673;BME280;1346;51.558;6.996;2022-10-16T06:11:41;100782.50;;;13.14;100.00
2673;BME280;1346;51.558;6.996;2022-10-16T06:14:09;100783.38;;;13.14;100.00
2673;BME280;1346;51.558;6.996;2022-10-16T06:16:36;100784.34;;;13.13;100.00
2673;BME280;1346;51.558;6.996;2022-10-16T06:19:04;100786.75;;;13.16;100.00
2673;BME280;1346;51.558;6.996;2022-10-16T06:21:33;100781.88;;;13.20;100.00
2673;BME280;1346;51.558;6.996;2022-10-16T06:24:00;100787.06;;;13.21;100.00
2673;BME280;1346;51.558;6.996;2022-10-16T06:26:30;100791.44;;;13.22;100.00
2673;BME280;1346;51.558;6.996;2022-10-16T06:28:59;100784.38;;;13.21;100.00
2673;BME280;1346;51.558;6.996;2022-10-16T06:31:27;100790.56;;;13.22;100.00
2673;BME280;1346;51.558;6.996;2022-10-16T06:33:56;100793.13;;;13.23;100.00
2673;BME280;1346;51.558;6.996;2022-10-16T06:36:24;100801.84;;;13.25;100.00
2673;BME280;1346;51.558;6.996;2022-10-16T06:38:51;100801.53;;;13.28;100.00
2673;BME280;1346;51.558;6.996;2022-10-16T06:41:21;100819.84;;;13.33;100.00
2673;BME280;1346;51.558;6.996;2022-10-16T06:43:50;100817.69;;;13.37;100.00
2673;BME280;1346;51.558;6.996;2022-10-16T06:46:21;100823.75;;;13.39;100.00
2673;BME280;1346;51.558;6.996;2022-10-16T06:48:48;100826.44;;;13.39;100.00
2673;BME280;1346;51.558;6.996;2022-10-16T06:51:17;100822.72;;;13.40;100.00
2673;BME280;1346;51.558;6.996;2022-10-16T06:53:47;100828.59;;;13.35;100.00
2673;BME280;1346;51.558;6.996;2022-10-16T06:56:19;100839.38;;;13.35;100.00
2673;BME280;1346;51.558;6.996;2022-10-16T06:58:47;100843.06;;;13.34;100.00
2673;BME280;1346;51.558;6.996;2022-10-16T07:01:18;100848.13;;;13.37;100.00
2673;BME280;1346;51.558;6.996;2022-10-16T07:03:46;100856.34;;;13.35;100.00
2673;BME280;1346;51.558;6.996;2022-10-16T07:06:15;100857.03;;;13.29;100.00
2673;BME280;1346;51.558;6.996;2022-10-16T07:08:44;100875.69;;;13.31;100.00
2673;BME280;1346;51.558;6.996;2022-10-16T07:11:14;100870.13;;;13.32;100.00
2673;BME280;1346;51.558;6.996;2022-10-16T07:13:43;100879.91;;;13.33;100.00
2673;BME280;1346;51.558;6.996;2022-10-16T07:16:13;100889.81;;;13.33;100.00
2673;BME280;1346;51.558;6.996;2022-10-16T07:18:43;100895.72;;;13.37;100.00
2673;BME280;1346;51.558;6.996;2022-10-16T07:21:14;100897.72;;;13.34;100.00
2673;BME280;1346;51.558;6.996;2022-10-16T07:23:42;100905.63;;;13.36;100.00
2673;BME280;1346;51.558;6.996;2022-10-16T07:26:10;100897.72;;;13.34;100.00
2673;BME280;1346;51.558;6.996;2022-10-16T07:28:37;100899.09;;;13.39;100.00
2673;BME280;1346;51.558;6.996;2022-10-16T07:31:07;100902.75;;;13.46;100.00
2673;BME280;1346;51.558;6.996;2022-10-16T07:33:37;100909.34;;;13.51;100.00
2673;BME280;1346;51.558;6.996;2022-10-16T07:36:06;100904.97;;;13.58;100.00
2673;BME280;1346;51.558;6.996;2022-10-16T07:38:34;100906.16;;;13.64;100.00
2673;BME280;1346;51.558;6.996;2022-10-16T07:41:03;100913.88;;;13.75;100.00
2673;BME280;1346;51.558;6.996;2022-10-16T07:43:31;100913.91;;;13.83;100.00
2673;BME280;1346;51.558;6.996;2022-10-16T07:45:58;100915.56;;;13.92;100.00
2673;BME280;1346;51.558;6.996;2022-10-16T07:48:28;100927.00;;;14.02;100.00
2673;BME280;1346;51.558;6.996;2022-10-16T07:50:57;100927.84;;;14.10;100.00
2673;BME280;1346;51.558;6.996;2022-10-16T07:53:26;100941.47;;;14.17;100.00
2673;BME280;1346;51.558;6.996;2022-10-16T07:55:58;100942.34;;;14.25;100.00
2673;BME280;1346;51.558;6.996;2022-10-16T07:58:25;100953.94;;;14.34;100.00
2673;BME280;1346;51.558;6.996;2022-10-16T08:00:52;100963.03;;;14.49;100.00
2673;BME280;1346;51.558;6.996;2022-10-16T08:03:19;100964.00;;;14.56;100.00
2673;BME280;1346;51.558;6.996;2022-10-16T08:05:46;100967.69;;;14.63;100.00
2673;BME280;1346;51.558;6.996;2022-10-16T08:08:14;100967.03;;;14.69;100.00
2673;BME280;1346;51.558;6.996;2022-10-16T08:10:43;100974.91;;;14.79;100.00
2673;BME280;1346;51.558;6.996;2022-10-16T08:13:10;100970.34;;;14.87;100.00
2673;BME280;1346;51.558;6.996;2022-10-16T08:15:40;100972.50;;;14.92;100.00
2673;BME280;1346;51.558;6.996;2022-10-16T08:18:07;100974.50;;;14.98;100.00
2673;BME280;1346;51.558;6.996;2022-10-16T08:20:34;100981.06;;;15.03;100.00
2673;BME280;1346;51.558;6.996;2022-10-16T08:23:01;100981.03;;;15.11;100.00
2673;BME280;1346;51.558;6.996;2022-10-16T08:25:28;100975.94;;;15.16;100.00
2673;BME280;1346;51.558;6.996;2022-10-16T08:27:56;100999.19;;;15.25;100.00
2673;BME280;1346;51.558;6.996;2022-10-16T08:30:24;100995.09;;;15.29;100.00
2673;BME280;1346;51.558;6.996;2022-10-16T08:32:52;101003.16;;;15.37;100.00
2673;BME280;1346;51.558;6.996;2022-10-16T08:35:19;101011.44;;;15.44;100.00
2673;BME280;1346;51.558;6.996;2022-10-16T08:37:46;101019.00;;;15.48;100.00
2673;BME280;1346;51.558;6.996;2022-10-16T08:40:18;101022.16;;;15.60;100.00
2673;BME280;1346;51.558;6.996;2022-10-16T08:43:16;101030.34;;;15.75;100.00
2673;BME280;1346;51.558;6.996;2022-10-16T08:46:15;101035.31;;;15.86;100.00
2673;BME280;1346;51.558;6.996;2022-10-16T08:48:47;101029.53;;;15.97;100.00
2673;BME280;1346;51.558;6.996;2022-10-16T08:51:20;101043.28;;;16.10;100.00
2673;BME280;1346;51.558;6.996;2022-10-16T08:53:57;101038.16;;;16.15;100.00
2673;BME280;1346;51.558;6.996;2022-10-16T08:56:26;101044.53;;;16.22;100.00
2673;BME280;1346;51.558;6.996;2022-10-16T08:58:54;101046.50;;;16.28;100.00
2673;BME280;1346;51.558;6.996;2022-10-16T09:01:23;101054.53;;;16.36;100.00
2673;BME280;1346;51.558;6.996;2022-10-16T09:04:40;101045.41;;;16.37;100.00
2673;BME280;1346;51.558;6.996;2022-10-16T09:07:15;101056.91;;;16.39;100.00
2673;BME280;1346;51.558;6.996;2022-10-16T09:10:00;101052.31;;;16.39;100.00
2673;BME280;1346;51.558;6.996;2022-10-16T09:12:33;101052.75;;;16.51;100.00
2673;BME280;1346;51.558;6.996;2022-10-16T09:15:15;101055.09;;;16.54;100.00
2673;BME280;1346;51.558;6.996;2022-10-16T09:17:54;101068.91;;;16.59;100.00
2673;BME280;1346;51.558;6.996;2022-10-16T09:20:35;101062.66;;;16.58;100.00
2673;BME280;1346;51.558;6.996;2022-10-16T09:23:16;101069.56;;;16.61;100.00
2673;BME280;1346;51.558;6.996;2022-10-16T09:25:48;101072.75;;;16.64;100.00
2673;BME280;1346;51.558;6.996;2022-10-16T09:28:17;101070.97;;;16.71;100.00
2673;BME280;1346;51.558;6.996;2022-10-16T09:30:45;101074.81;;;16.77;100.00
2673;BME280;1346;51.558;6.996;2022-10-16T09:33:15;101075.28;;;16.80;100.00
2673;BME280;1346;51.558;6.996;2022-10-16T09:35:46;101073.06;;;16.84;100.00
2673;BME280;1346;51.558;6.996;2022-10-16T09:38:25;101069.63;;;16.90;100.00
2673;BME280;1346;51.558;6.996;2022-10-16T09:40:53;101070.53;;;16.97;100.00
2673;BME280;1346;51.558;6.996;2022-10-16T09:43:24;101067.13;;;17.03;100.00
2673;BME280;1346;51.558;6.996;2022-10-16T09:45:55;101071.78;;;17.09;100.00
2673;BME280;1346;51.558;6.996;2022-10-16T09:48:22;101074.41;;;17.17;100.00
2673;BME280;1346;51.558;6.996;2022-10-16T09:51:00;101077.75;;;17.19;100.00
2673;BME280;1346;51.558;6.996;2022-10-16T09:53:42;101083.44;;;17.24;100.00
2673;BME280;1346;51.558;6.996;2022-10-16T09:56:21;101075.69;;;17.21;100.00
2673;BME280;1346;51.558;6.996;2022-10-16T09:58:50;101083.38;;;17.32;100.00
2673;BME280;1346;51.558;6.996;2022-10-16T10:01:19;101079.16;;;17.44;100.00
2673;BME280;1346;51.558;6.996;2022-10-16T10:03:47;101082.06;;;17.57;100.00
2673;BME280;1346;51.558;6.996;2022-10-16T10:06:21;101099.78;;;17.60;100.00
2673;BME280;1346;51.558;6.996;2022-10-16T10:08:58;101077.56;;;17.64;100.00
2673;BME280;1346;51.558;6.996;2022-10-16T10:11:49;101085.41;;;17.74;100.00
2673;BME280;1346;51.558;6.996;2022-10-16T10:14:24;101091.53;;;17.82;100.00
2673;BME280;1346;51.558;6.996;2022-10-16T10:17:02;101078.31;;;17.94;100.00
2673;BME280;1346;51.558;6.996;2022-10-16T10:19:39;101077.44;;;18.08;100.00
2673;BME280;1346;51.558;6.996;2022-10-16T10:22:18;101082.31;;;18.34;100.00
2673;BME280;1346;51.558;6.996;2022-10-16T10:25:15;101093.63;;;18.37;100.00
2673;BME280;1346;51.558;6.996;2022-10-16T10:27:56;101106.88;;;18.47;100.00
2673;BME280;1346;51.558;6.996;2022-10-16T10:30:34;101091.50;;;18.54;100.00
2673;BME280;1346;51.558;6.996;2022-10-16T10:33:18;101100.53;;;18.61;100.00
2673;BME280;1346;51.558;6.996;2022-10-16T10:35:54;101099.88;;;18.59;100.00
2673;BME280;1346;51.558;6.996;2022-10-16T10:38:34;101102.66;;;18.65;100.00
2673;BME280;1346;51.558;6.996;2022-10-16T10:41:23;101104.56;;;18.65;100.00
2673;BME280;1346;51.558;6.996;2022-10-16T10:44:03;101095.06;;;18.54;100.00
2673;BME280;1346;51.558;6.996;2022-10-16T10:46:39;101093.38;;;18.53;100.00
2673;BME280;1346;51.558;6.996;2022-10-16T10:49:27;101096.53;;;18.57;100.00
2673;BME280;1346;51.558;6.996;2022-10-16T10:52:11;101101.84;;;18.65;100.00
2673;BME280;1346;51.558;6.996;2022-10-16T10:54:47;101100.66;;;18.74;100.00
2673;BME280;1346;51.558;6.996;2022-10-16T10:57:25;101094.94;;;18.90;100.00
2673;BME280;1346;51.558;6.996;2022-10-16T11:00:06;101100.25;;;19.04;100.00
2673;BME280;1346;51.558;6.996;2022-10-16T11:02:42;101103.94;;;19.24;100.00
2673;BME280;1346;51.558;6.996;2022-10-16T11:05:33;101097.03;;;19.50;100.00
2673;BME280;1346;51.558;6.996;2022-10-16T11:08:11;101101.13;;;19.73;100.00
2673;BME280;1346;51.558;6.996;2022-10-16T11:10:48;101102.44;;;19.90;100.00
2673;BME280;1346;51.558;6.996;2022-10-16T11:13:26;101107.81;;;19.84;100.00
2673;BME280;1346;51.558;6.996;2022-10-16T11:16:00;101103.28;;;19.97;100.00
2673;BME280;1346;51.558;6.996;2022-10-16T11:18:41;101101.00;;;20.07;100.00
2673;BME280;1346;51.558;6.996;2022-10-16T11:21:14;101102.13;;;20.19;100.00
2673;BME280;1346;51.558;6.996;2022-10-16T11:23:46;101107.59;;;20.32;100.00
2673;BME280;1346;51.558;6.996;2022-10-16T11:26:19;101103.41;;;20.30;100.00
2673;BME280;1346;51.558;6.996;2022-10-16T11:28:50;101109.47;;;20.32;100.00
2673;BME280;1346;51.558;6.996;2022-10-16T11:31:26;101116.34;;;20.21;100.00
2673;BME280;1346;51.558;6.996;2022-10-16T11:34:01;101108.13;;;20.02;100.00
2673;BME280;1346;51.558;6.996;2022-10-16T11:36:36;101114.56;;;19.94;100.00
2673;BME280;1346;51.558;6.996;2022-10-16T11:39:16;101118.09;;;19.82;100.00
2673;BME280;1346;51.558;6.996;2022-10-16T11:41:49;101118.28;;;19.80;100.00
2673;BME280;1346;51.558;6.996;2022-10-16T11:44:30;101119.31;;;19.79;100.00
2673;BME280;1346;51.558;6.996;2022-10-16T11:47:10;101123.16;;;19.98;100.00
2673;BME280;1346;51.558;6.996;2022-10-16T11:49:40;101122.16;;;20.12;100.00
2673;BME280;1346;51.558;6.996;2022-10-16T11:52:15;101110.91;;;20.21;100.00
2673;BME280;1346;51.558;6.996;2022-10-16T11:54:47;101116.00;;;20.51;100.00
2673;BME280;1346;51.558;6.996;2022-10-16T11:57:20;101109.09;;;20.55;99.81
2673;BME280;1346;51.558;6.996;2022-10-16T11:59:53;101122.72;;;20.81;100.00
2673;BME280;1346;51.558;6.996;2022-10-16T12:02:41;101124.84;;;21.05;96.27
2673;BME280;1346;51.558;6.996;2022-10-16T12:05:23;101131.75;;;21.14;95.60
2673;BME280;1346;51.558;6.996;2022-10-16T12:08:02;101143.72;;;21.00;93.63
2673;BME280;1346;51.558;6.996;2022-10-16T12:10:33;101144.50;;;20.74;94.80
2673;BME280;1346;51.558;6.996;2022-10-16T12:13:03;101149.53;;;20.71;96.89
2673;BME280;1346;51.558;6.996;2022-10-16T12:15:33;101139.69;;;20.83;96.00
2673;BME280;1346;51.558;6.996;2022-10-16T12:18:01;101142.00;;;20.86;95.64
2673;BME280;1346;51.558;6.996;2022-10-16T12:20:31;101139.06;;;20.94;95.49
2673;BME280;1346;51.558;6.996;2022-10-16T12:23:01;101141.38;;;20.97;92.89
2673;BME280;1346;51.558;6.996;2022-10-16T12:25:31;101127.34;;;21.06;93.21
2673;BME280;1346;51.558;6.996;2022-10-16T12:28:04;101133.22;;;21.16;90.90
2673;BME280;1346;51.558;6.996;2022-10-16T12:30:35;101134.06;;;21.17;93.76
2673;BME280;1346;51.558;6.996;2022-10-16T12:33:05;101138.84;;;21.21;92.46
2673;BME280;1346;51.558;6.996;2022-10-16T12:35:44;101135.09;;;21.22;89.11
2673;BME280;1346;51.558;6.996;2022-10-16T12:38:19;101132.78;;;21.13;87.96
2673;BME280;1346;51.558;6.996;2022-10-16T12:40:57;101146.81;;;20.90;90.24
2673;BME280;1346;51.558;6.996;2022-10-16T12:43:39;101147.44;;;20.60;91.49
2673;BME280;1346;51.558;6.996;2022-10-16T12:46:33;101147.56;;;20.32;95.61
2673;BME280;1346;51.558;6.996;2022-10-16T12:49:22;101145.22;;;20.16;98.43
2673;BME280;1346;51.558;6.996;2022-10-16T12:51:55;101143.94;;;20.12;97.35
2673;BME280;1346;51.558;6.996;2022-10-16T12:54:27;101133.53;;;20.22;95.11
2673;BME280;1346;51.558;6.996;2022-10-16T12:57:12;101131.66;;;20.29;97.31
2673;BME280;1346;51.558;6.996;2022-10-16T12:59:48;101138.78;;;20.36;94.98
2673;BME280;1346;51.558;6.996;2022-10-16T13:02:44;101142.78;;;20.34;95.10
2673;BME280;1346;51.558;6.996;2022-10-16T13:05:32;101140.69;;;20.42;92.90
2673;BME280;1346;51.558;6.996;2022-10-16T13:08:21;101143.66;;;20.54;95.37
2673;BME280;1346;51.558;6.996;2022-10-16T13:11:01;101143.66;;;20.61;93.72
2673;BME280;1346;51.558;6.996;2022-10-16T13:13:54;101148.88;;;20.69;95.71
2673;BME280;1346;51.558;6.996;2022-10-16T13:16:35;101144.28;;;20.69;88.75
2673;BME280;1346;51.558;6.996;2022-10-16T13:19:18;101152.47;;;20.69;86.37
2673;BME280;1346;51.558;6.996;2022-10-16T13:21:55;101153.72;;;20.67;87.22
2673;BME280;1346;51.558;6.996;2022-10-16T13:24:46;101151.22;;;20.72;87.05
2673;BME280;1346;51.558;6.996;2022-10-16T13:27:27;101144.28;;;20.69;85.92